createdAt,value
2023-02-12T00:01:06.349Z,13.1
2023-02-12T00:06:43.074Z,13.1
2023-02-12T00:12:20.518Z,13
2023-02-12T00:17:27.249Z,12.9
2023-02-12T00:23:04.778Z,13
2023-02-12T00:28:43.757Z,13.1
2023-02-12T00:34:06.970Z,13.1
2023-02-12T00:39:45.631Z,13.1
2023-02-12T00:45:23.151Z,13.1
2023-02-12T00:51:04.378Z,13.1
2023-02-12T00:56:41.766Z,13.3
2023-02-12T01:02:19.361Z,13.3
2023-02-12T01:07:57.039Z,13.3
2023-02-12T01:13:33.741Z,13.3
2023-02-12T01:19:12.881Z,13.3
2023-02-12T01:24:35.624Z,13.3
2023-02-12T01:30:14.247Z,13.2
2023-02-12T01:35:53.564Z,13.2
2023-02-12T01:41:34.150Z,13.3
2023-02-12T01:47:11.759Z,13.3
2023-02-12T01:52:49.483Z,13.3
2023-02-12T01:58:27.379Z,13.2
2023-02-12T02:04:05.544Z,13.3
2023-02-12T02:09:27.903Z,13.3
2023-02-12T02:15:05.557Z,13.3
2023-02-12T02:20:43.467Z,13.2
2023-02-12T02:26:20.750Z,13.2
2023-02-12T02:31:57.465Z,13.3
2023-02-12T02:37:50.567Z,13.2
2023-02-12T02:43:27.947Z,13.2
2023-02-12T02:49:05.506Z,13.1
2023-02-12T02:54:43.764Z,13.2
2023-02-12T03:00:06.885Z,13.1
2023-02-12T03:05:29.578Z,13.2
2023-02-12T03:11:07.979Z,13.2
2023-02-12T03:16:45.961Z,13.3
2023-02-12T03:22:22.173Z,13.3
2023-02-12T03:27:44.377Z,13.2
2023-02-12T03:33:06.172Z,13.2
2023-02-12T03:38:43.035Z,13.2
2023-02-12T03:44:20.498Z,13.2
2023-02-12T03:49:58.473Z,13.1
2023-02-12T03:55:35.246Z,13.2
2023-02-12T04:01:12.806Z,13.2
2023-02-12T04:06:51.514Z,13.2
2023-02-12T04:12:27.373Z,13.1
2023-02-12T04:18:06.483Z,13.3
2023-02-12T04:23:45.161Z,13.3
2023-02-12T04:29:22.774Z,13.3
2023-02-12T04:35:01.543Z,13.3
2023-02-12T04:40:23.251Z,13.3
2023-02-12T04:45:59.394Z,13.3
2023-02-12T04:51:37.065Z,13.3
2023-02-12T04:57:13.972Z,13.3
2023-02-12T05:02:54.617Z,13.3
2023-02-12T05:08:32.415Z,13.2
2023-02-12T05:13:53.743Z,13.3
2023-02-12T05:19:15.546Z,13.2
2023-02-12T05:24:53.227Z,13.1
2023-02-12T05:30:14.841Z,13.1
2023-02-12T05:35:53.661Z,13
2023-02-12T05:41:16.284Z,12.9
2023-02-12T05:46:53.262Z,12.9
2023-02-12T05:52:16.214Z,12.9
2023-02-12T05:57:54.679Z,12.9
2023-02-12T06:03:31.534Z,13
2023-02-12T06:08:52.831Z,12.9
2023-02-12T06:14:31.956Z,13
2023-02-12T06:19:54.252Z,13
2023-02-12T06:25:30.780Z,12.9
2023-02-12T06:30:52.456Z,12.9
2023-02-12T06:36:30.882Z,12.9
2023-02-12T06:42:07.394Z,12.9
2023-02-12T06:47:29.476Z,12.9
2023-02-12T06:53:10.304Z,12.9
2023-02-12T06:58:32.440Z,12.9
2023-02-12T07:04:10.507Z,13
2023-02-12T07:09:32.908Z,12.8
2023-02-12T07:14:41.568Z,12.9
2023-02-12T07:20:04.518Z,12.9
2023-02-12T07:25:13.738Z,13.1
2023-02-12T07:30:19.848Z,13.1
2023-02-12T07:35:57.697Z,13
2023-02-12T07:41:34.672Z,13.1
2023-02-12T07:46:55.846Z,13.1
2023-02-12T07:52:33.306Z,13.1
2023-02-12T07:57:55.248Z,13.1
2023-02-12T08:03:16.861Z,13.1
2023-02-12T08:08:54.804Z,13.2
2023-02-12T08:14:32.248Z,13.1
2023-02-12T08:20:23.714Z,13.1
2023-02-12T08:26:01.378Z,13.1
2023-02-12T08:31:39.711Z,13.1
2023-02-12T08:37:17.391Z,13.1
2023-02-12T08:42:54.923Z,13.1
2023-02-12T08:48:16.613Z,13.1
2023-02-12T08:53:39.015Z,13.2
2023-02-12T08:59:16.466Z,13.2
2023-02-12T09:04:53.791Z,13.2
2023-02-12T09:10:14.829Z,13.2
2023-02-12T09:15:53.039Z,13.2
2023-02-12T09:21:30.466Z,13.1
2023-02-12T09:27:07.129Z,13.2
2023-02-12T09:32:30.313Z,13.1
2023-02-12T09:37:52.258Z,13.2
2023-02-12T09:43:29.366Z,13.3
2023-02-12T09:49:08.475Z,13.1
2023-02-12T09:54:45.293Z,13.1
2023-02-12T10:00:31.779Z,13
2023-02-12T10:06:07.901Z,13.1
2023-02-12T10:11:48.638Z,13
2023-02-12T10:17:28.772Z,13.1
2023-02-12T10:23:13.638Z,13.1
2023-02-12T10:28:51.877Z,13.1
2023-02-12T10:34:16.504Z,13.1
2023-02-12T10:39:38.062Z,13.1
2023-02-12T10:45:16.443Z,13.1
2023-02-12T10:50:54.793Z,13.1
2023-02-12T10:56:33.980Z,13.1
2023-02-12T11:02:12.638Z,13.1
2023-02-12T11:07:49.371Z,13.2
2023-02-12T11:13:27.219Z,13.2
2023-02-12T11:19:06.343Z,13.1
2023-02-12T11:24:45.106Z,13.1
2023-02-12T11:30:24.086Z,13.1
2023-02-12T11:35:46.590Z,13
2023-02-12T11:41:27.410Z,12.9
2023-02-12T11:47:04.684Z,13
2023-02-12T11:52:26.249Z,12.9
2023-02-12T11:57:48.661Z,12.9
2023-02-12T12:03:11.168Z,13
2023-02-12T12:08:49.921Z,13
2023-02-12T12:14:11.591Z,13
2023-02-12T12:19:50.212Z,13.1
2023-02-12T12:25:26.692Z,13.1
2023-02-12T12:31:03.488Z,13.1
2023-02-12T12:36:25.137Z,13.1
2023-02-12T12:42:02.211Z,13.1
2023-02-12T12:47:40.098Z,13.2
2023-02-12T12:53:18.429Z,13.2
2023-02-12T12:58:40.457Z,13.3
2023-02-12T13:04:18.492Z,13.3
2023-02-12T13:09:57.239Z,13.3
2023-02-12T13:15:34.931Z,13.2
2023-02-12T13:20:56.632Z,13.2
2023-02-12T13:26:35.454Z,13.1
2023-02-12T13:32:38.806Z,13.2
2023-02-12T13:38:01.375Z,13.2
2023-02-12T13:43:10.672Z,13.2
2023-02-12T13:48:33.653Z,13.2
2023-02-12T13:53:55.814Z,13.3
2023-02-12T13:59:17.560Z,13.3
2023-02-12T14:04:40.793Z,13.3
2023-02-12T14:10:04.035Z,13.3
2023-02-12T14:15:28.490Z,13.3
2023-02-12T14:20:53.088Z,13.4
2023-02-12T14:26:15.137Z,13.3
2023-02-12T14:31:22.562Z,13.3
2023-02-12T14:36:45.951Z,13.3
2023-02-12T14:42:06.604Z,13.3
2023-02-12T14:47:28.091Z,13.3
2023-02-12T14:52:50.772Z,13.3
2023-02-12T14:58:13.496Z,13.4
2023-02-12T15:03:36.001Z,13.3
2023-02-12T15:09:14.127Z,13.3
2023-02-12T15:14:21.352Z,13.4
2023-02-12T15:19:58.906Z,13.4
2023-02-12T15:25:36.901Z,13.4
2023-02-12T15:31:17.354Z,13.4
2023-02-12T15:36:54.877Z,13.4
2023-02-12T15:42:07.685Z,13.4
2023-02-12T15:47:47.687Z,13.4
2023-02-12T15:53:25.108Z,13.4
2023-02-12T15:58:31.545Z,13.4
2023-02-12T16:03:39.898Z,13.4
2023-02-12T16:09:18.278Z,13.3
2023-02-12T16:14:39.528Z,13.3
2023-02-12T16:19:46.502Z,13.4
2023-02-12T16:25:23.447Z,13.3
2023-02-12T16:31:01.864Z,13.3
2023-02-12T16:36:39.851Z,13.3
2023-02-12T16:42:17.482Z,13.4
2023-02-12T16:47:56.194Z,13.5
2023-02-12T16:53:33.377Z,13.4
2023-02-12T16:59:11.727Z,13.4
2023-02-12T17:04:19.371Z,13.4
2023-02-12T17:09:41.777Z,13.4
2023-02-12T17:15:05.307Z,13.4
2023-02-12T17:20:56.758Z,13.5
2023-02-12T17:26:34.790Z,13.5
2023-02-12T17:31:41.661Z,13.1
2023-02-12T17:37:34.721Z,13.1
2023-02-12T17:43:12.517Z,13.1
2023-02-12T17:48:51.488Z,13.2
2023-02-12T17:54:29.220Z,13.1
2023-02-12T18:00:06.645Z,13.2
2023-02-12T18:05:29.512Z,13.2
2023-02-12T18:10:52.320Z,13.3
2023-02-12T18:16:13.901Z,13.3
2023-02-12T18:21:51.304Z,13.3
2023-02-12T18:27:28.583Z,13.3
2023-02-12T18:33:07.233Z,13.3
2023-02-12T18:38:45.035Z,13.4
2023-02-12T18:44:07.272Z,13.4
2023-02-12T18:49:45.827Z,13.4
2023-02-12T18:55:24.596Z,13.4
2023-02-12T19:01:03.235Z,13.5
2023-02-12T19:06:10.646Z,13.4
2023-02-12T19:11:33.550Z,13.4
2023-02-12T19:17:12.028Z,13.4
2023-02-12T19:22:18.644Z,13.4
2023-02-12T19:28:21.326Z,13.4
2023-02-12T19:33:46.248Z,13.4
2023-02-12T19:38:53.885Z,13.4
2023-02-12T19:44:33.770Z,13.5
2023-02-12T19:49:55.613Z,13.6
2023-02-12T19:55:18.827Z,13.6
2023-02-12T20:00:25.245Z,13.5
2023-02-12T20:05:31.910Z,13.4
2023-02-12T20:10:23.604Z,13.4
2023-02-12T20:15:46.403Z,13.4
2023-02-12T20:20:53.932Z,13.6
2023-02-12T20:26:17.973Z,13.5
2023-02-12T20:31:39.999Z,13.5
2023-02-12T20:37:10.069Z,13.6
2023-02-12T20:42:32.132Z,13.5
2023-02-12T20:47:54.456Z,13.5
2023-02-12T20:53:01.703Z,13.5
2023-02-12T20:58:24.341Z,13.6
2023-02-12T21:04:02.273Z,13.6
2023-02-12T21:09:39.862Z,13.6
2023-02-12T21:15:10.731Z,13.6
2023-02-12T21:20:48.783Z,13.6
2023-02-12T21:26:27.744Z,13.6
2023-02-12T21:31:50.885Z,13.6
2023-02-12T21:37:28.671Z,13.7
2023-02-12T21:43:12.558Z,13.6
2023-02-12T21:48:34.789Z,13.7
2023-02-12T21:54:03.011Z,13.7
2023-02-12T21:59:39.831Z,13.7
2023-02-12T22:05:16.891Z,13.7
2023-02-12T22:10:52.719Z,13.7
2023-02-12T22:16:30.660Z,13.7
2023-02-12T22:22:08.164Z,13.7
2023-02-12T22:27:44.690Z,13.7
2023-02-12T22:32:51.617Z,13.6
2023-02-12T22:38:29.514Z,13.6
2023-02-12T22:44:06.574Z,13.6
2023-02-12T22:49:44.431Z,13.6
2023-02-12T22:55:21.930Z,13.6
2023-02-12T23:00:59.485Z,13.6
2023-02-12T23:06:51.883Z,13.6
2023-02-12T23:12:16.133Z,13.6
2023-02-12T23:18:07.555Z,13.6
2023-02-12T23:22:59.032Z,13.6
2023-02-12T23:28:20.928Z,13.6
2023-02-12T23:33:59.845Z,13.6
2023-02-12T23:39:20.909Z,13.6
2023-02-12T23:44:28.370Z,13.6
2023-02-12T23:49:49.571Z,13.7
2023-02-12T23:55:33.670Z,13.6
